Crescent City, CA (95531)

9:38 AM PST on February 24, 2017 (GMT -0800)
Tanbark lane | | Change Station

Elev 98 ft 41.79 °N, 124.17 °W | Updated 15 seconds ago

Overcast
Overcast
40.6 °F
Feels Like 41 °F
N
0.4
Wind Variable Wind from South
Gusts 2.5 mph

Today
High -- | Low -- °F
--% Chance of Precip.
Yesterday
High -- | Low -- °F
Precip. -- in
Pressure 30.26 in
Visibility 10.0 miles
Clouds Few 4500 ft
Overcast 9000 ft
Windchill 41 °F
Dew Point 34 °F
Humidity 78%
Rainfall 0.00 in
Snow Depth Not available.
6:58 AM 6:01 PM
Waning Crescent, 4% visible
METAR KCEC 241656Z AUTO 15012KT 10SM FEW045 OVC090 05/02 A3025 RMK AO2 SLP245 T00500017
Pressure 30.26 in
Visibility 10.0 miles
Clouds Few 4500 ft
Overcast 9000 ft
Windchill 41 °F
Dew Point 34 °F
Humidity 78%
Rainfall 0.00 in
Snow Depth Not available.
6:58 AM 6:01 PM
Waning Crescent, 4% visible
METAR KCEC 241656Z AUTO 15012KT 10SM FEW045 OVC090 05/02 A3025 RMK AO2 SLP245 T00500017

Get Your Daily Forecast Email!

Thanks for signing up!

Be on the lookout for a verification email in your inbox.

You'll start receiving the daily forecast at 8 AM.

×

10-Day Weather Forecast

Almanac

Astronomy

Feb. 24, 2017 Rise Set
Actual Time
Civil Twilight
Nautical Twilight
Astronomical Twilight
Moon
Length of Visible Light
Length of Day
Tomorrow will be .
, % of the Moon is Illuminated

Today's Extremes

State Highs State Lows

Community

WunderPhotos

Upload Photos

1,962,540 photos uploaded!

WunderBlog® & News

Nearby

Air Quality

  Air Quality AQ Index Pollutant
Not available.

Snow Depth

Station Depth Elevation

Earthquake Activity

City Distance Mag. Time & Date
Minimum magnitude displayed is 2.5.

Coastal Water Temperatures

Place Temperature

Stations

Nearby Weather Stations

Station Location Temp. Windchill Dew Point Humidity Wind Precip. Elev Updated Type
                   

Watches & Warnings

There are currently no watches in effect.